Hamilton, KS (66853)

8:45 PM CDT on July 28, 2016 (GMT -0500)
NonFedAWOS | | Change Station
Active Advisory: Severe Thunderstorm Watch

Elev 1208 ft 37.85 °N, 96.29 °W | Updated 26 minutes ago

Clear
Clear
82 °F
Feels Like 87 °F
N
3
Wind Variable Wind from SSW
Gusts 0.0 mph

Today
High -- | Low -- °F
--% Chance of Precip.
Yesterday
High -- | Low -- °F
Precip. -- in
Pressure 29.91 in
Visibility 10.0 miles
Clouds Clear
Heat Index 87 °F
Dew Point 73 °F
Humidity 74%
Rainfall in
Snow Depth Not available.
6:24 AM 8:37 PM
Waning Crescent, 27% visible
METAR KEMP 290053Z AUTO 00000KT 10SM CLR 29/20 A2994 RMK AO2 SLP126 T02890200
Pressure 29.91 in
Visibility 10.0 miles
Clouds Clear
Heat Index 87 °F
Dew Point 73 °F
Humidity 74%
Rainfall in
Snow Depth Not available.
6:24 AM 8:37 PM
Waning Crescent, 27% visible
METAR KEMP 290053Z AUTO 00000KT 10SM CLR 29/20 A2994 RMK AO2 SLP126 T02890200

10-Day Weather Forecast

Almanac

Astronomy

Jul. 28, 2016 Rise Set
Actual Time
Civil Twilight
Nautical Twilight
Astronomical Twilight
Moon
Length of Visible Light
Length of Day
Tomorrow will be .
, % of the Moon is Illuminated

Today's Extremes

State Highs State Lows

Community

WunderPhotos

Upload Photos

1,928,255 photos uploaded!

WunderBlog® & News

Nearby

Air Quality

  Air Quality AQ Index Pollutant
Not available.

Snow Depth

Station Depth Elevation

Earthquake Activity

City Distance Mag. Time & Date
Minimum magnitude displayed is 2.5.

Coastal Water Temperatures

Place Temperature

Stations

Nearby Weather Stations

Station Location Temp. Windchill Dew Point Humidity Wind Precip. Elev Updated Type
                   

Watches & Warnings

Severe Thunderstorm Watch
Issued: 8:43 PM CDT Jul. 28, 2016 – National Weather Service

Severe Thunderstorm Watch 420 remains in effect until 1100 PM CDT
for the following locations


KS
. Kansas counties included are

Barton Butler Chase
Chautauqua Cowley Edwards
Elk Ellis Ellsworth
Geary Gove Greenwood
Harper Harvey Kingman
Lincoln Lyon McPherson
Marion Morris Ness
Pawnee Pottawatomie Pratt
Reno Rice Riley
rush Russell Saline
Sedgwick Stafford Sumner
Trego Wabaunsee